Somerset, NJ - U.S.A.

40° 30' 13"N, 74° 29' 17"W, Elevation 55 ft.

Sunday, May 24, 2015
11:00:00 AM (Eastern)

144th day of the year

Updated and refreshed every 2 minutes. Weather computer in use: Davis Vantage PRO2 Plus


Current Weather:
Yesterday

Current Today's Highs and Lows
Temperature 71.4°F (21.9°C) ↑ 71.4° 10:57 AM
41.0° 5:34 AM
Dew Point 50.1°F (10.1°C) ↓ 52.5° 8:43 AM
35.4° 2:35 AM
Humidity 47% ↓ 93% 7:38 AM
47% 10:54 AM
Wind Gust S 6 mph S 7 10:36 AM
S 0 12:00 AM
Wind Speed S 0 mph ↑
Calm (0)
S 2 10:44 AM
S 0 12:00 AM
Precipitation 0.00" (0.00 mm) 1
Last 24 hours 0.00"
Instantaneous rate 0.00"/hr
Storm total 0.00"
0.00"2 12:00 AM
0.00"2 12:00 AM
Barometer 30.339" (1027.4 mb)
Falling
30.376" 8:14 AM
30.339" 10:59 AM
Wind Chill Gust 71°F (22°C) 71° 10:57 AM
41° 5:34 AM
Wind Chill Avg 71°F (22°C) 71° 10:57 AM
41° 5:34 AM
Heat Index 69°F (20.6°C) 69° 10:20 AM
41° 4:44 AM
Sunshine 893 W/m2
Sunshine minutes 126
893 10:59 AM
0 12:00 AM
UV Index  2.9 3.2 10:42 AM
0.0 12:00 AM
1. Daily total rainfall.
2. Maximum and minimum rainfall are the instantaneous rainfall rates.

'KSOM' METAR REPORT:

METAR KSOM 241500Z AUTO 17000KT 22/10 A3034 RMK AO1 SLP274 T02190101 

Webcam
EBWeather Image

Video - Last 3 Hours

Video - Yesterday

NJ Region Surface Map
NJ Sfc Map

Weather Data from Somerset, NJ

Data generated by WxSolution Version 1.8.7.5, Build 2015.04.24.